Weather at San Mauro Airfield

Public forecast

Using degrees Celsius for public forecast. Weather courtesy of forecast.io.

Closest aviation weather report (METAR) to San Mauro Airfield

Closest report is Udine-Rivolto Air Base, 14.3 nm (26.5 km) WSW.

2024/05/20 21:55 (retrieved 1 hour ago)

LIPI 202155Z 36003KT 9999 -RA SCT055 BKN100 20/19 Q1009

Closest aviation forecast (TAF) to San Mauro Airfield

Closest forecast is Trieste–Friuli Venezia Giulia Airport, 15.1 nm (28.0 km) SSE.

2024/05/20 18:30 (retrieved 4 hours ago)

TAF LIPQ 201700Z 2018/2118 VRB05KT 9999 SCT050 TEMPO 2021/2108 4000 TSRA BECMG 2104/2106 08010KT TEMPO 2108/2116 2000 +TSRA BKN008 BECMG 2109/2111 17010KT